sensor_id;sensor_type;location;lat;lon;timestamp;P1;durP1;ratioP1;P2;durP2;ratioP2
71648;SDS011;59492;45.638;11.714;2022-12-24T00:01:42;20.10;;;13.90;;
71648;SDS011;59492;45.638;11.714;2022-12-24T00:04:08;19.00;;;13.90;;
71648;SDS011;59492;45.638;11.714;2022-12-24T00:06:33;17.10;;;13.00;;
71648;SDS011;59492;45.638;11.714;2022-12-24T00:08:59;18.30;;;13.80;;
71648;SDS011;59492;45.638;11.714;2022-12-24T00:11:24;18.80;;;13.60;;
71648;SDS011;59492;45.638;11.714;2022-12-24T00:13:50;24.60;;;14.80;;
71648;SDS011;59492;45.638;11.714;2022-12-24T00:16:16;21.40;;;14.80;;
71648;SDS011;59492;45.638;11.714;2022-12-24T00:18:41;17.30;;;13.50;;
71648;SDS011;59492;45.638;11.714;2022-12-24T00:21:07;16.20;;;13.00;;
71648;SDS011;59492;45.638;11.714;2022-12-24T00:23:32;18.30;;;13.00;;
71648;SDS011;59492;45.638;11.714;2022-12-24T00:25:58;15.40;;;12.30;;
71648;SDS011;59492;45.638;11.714;2022-12-24T00:28:23;17.10;;;13.60;;
71648;SDS011;59492;45.638;11.714;2022-12-24T00:30:49;20.10;;;14.20;;
71648;SDS011;59492;45.638;11.714;2022-12-24T00:33:14;16.90;;;13.80;;
71648;SDS011;59492;45.638;11.714;2022-12-24T00:35:40;18.00;;;13.60;;
71648;SDS011;59492;45.638;11.714;2022-12-24T00:38:06;17.80;;;14.30;;
71648;SDS011;59492;45.638;11.714;2022-12-24T00:40:32;19.10;;;14.50;;
71648;SDS011;59492;45.638;11.714;2022-12-24T00:42:58;18.90;;;14.20;;
71648;SDS011;59492;45.638;11.714;2022-12-24T00:45:24;19.60;;;13.80;;
71648;SDS011;59492;45.638;11.714;2022-12-24T00:47:52;15.70;;;12.40;;
71648;SDS011;59492;45.638;11.714;2022-12-24T00:50:17;17.00;;;13.40;;
71648;SDS011;59492;45.638;11.714;2022-12-24T00:52:43;18.00;;;13.20;;
71648;SDS011;59492;45.638;11.714;2022-12-24T00:55:09;16.70;;;13.00;;
71648;SDS011;59492;45.638;11.714;2022-12-24T00:57:34;19.00;;;13.70;;
71648;SDS011;59492;45.638;11.714;2022-12-24T01:00:00;16.30;;;13.00;;
71648;SDS011;59492;45.638;11.714;2022-12-24T01:02:25;17.40;;;13.80;;
71648;SDS011;59492;45.638;11.714;2022-12-24T01:04:51;17.70;;;13.60;;
71648;SDS011;59492;45.638;11.714;2022-12-24T01:07:36;17.60;;;13.20;;
71648;SDS011;59492;45.638;11.714;2022-12-24T01:10:03;22.10;;;14.00;;
71648;SDS011;59492;45.638;11.714;2022-12-24T01:12:29;16.30;;;13.40;;
71648;SDS011;59492;45.638;11.714;2022-12-24T01:14:55;18.50;;;13.60;;
71648;SDS011;59492;45.638;11.714;2022-12-24T01:17:21;15.10;;;11.60;;
71648;SDS011;59492;45.638;11.714;2022-12-24T01:19:47;17.60;;;12.70;;
71648;SDS011;59492;45.638;11.714;2022-12-24T01:22:13;18.20;;;13.30;;
71648;SDS011;59492;45.638;11.714;2022-12-24T01:24:41;18.30;;;14.10;;
71648;SDS011;59492;45.638;11.714;2022-12-24T01:27:07;18.80;;;13.90;;
71648;SDS011;59492;45.638;11.714;2022-12-24T01:29:33;15.90;;;13.60;;
71648;SDS011;59492;45.638;11.714;2022-12-24T01:31:59;20.50;;;14.20;;
71648;SDS011;59492;45.638;11.714;2022-12-24T01:34:24;18.40;;;14.50;;
71648;SDS011;59492;45.638;11.714;2022-12-24T01:36:50;20.10;;;13.90;;
71648;SDS011;59492;45.638;11.714;2022-12-24T01:39:15;16.30;;;13.40;;
71648;SDS011;59492;45.638;11.714;2022-12-24T01:41:41;17.90;;;13.70;;
71648;SDS011;59492;45.638;11.714;2022-12-24T01:44:29;16.70;;;13.10;;
71648;SDS011;59492;45.638;11.714;2022-12-24T01:47:03;15.30;;;12.30;;
71648;SDS011;59492;45.638;11.714;2022-12-24T01:49:34;16.90;;;12.70;;
71648;SDS011;59492;45.638;11.714;2022-12-24T01:52:04;16.70;;;13.50;;
71648;SDS011;59492;45.638;11.714;2022-12-24T01:54:37;17.30;;;13.40;;
71648;SDS011;59492;45.638;11.714;2022-12-24T01:57:12;16.50;;;12.90;;
71648;SDS011;59492;45.638;11.714;2022-12-24T01:59:45;17.10;;;13.00;;
71648;SDS011;59492;45.638;11.714;2022-12-24T02:02:14;19.00;;;14.40;;
71648;SDS011;59492;45.638;11.714;2022-12-24T02:04:46;19.30;;;13.90;;
71648;SDS011;59492;45.638;11.714;2022-12-24T02:07:14;16.10;;;12.80;;
71648;SDS011;59492;45.638;11.714;2022-12-24T02:09:40;16.20;;;12.30;;
71648;SDS011;59492;45.638;11.714;2022-12-24T02:12:06;16.80;;;12.90;;
71648;SDS011;59492;45.638;11.714;2022-12-24T02:14:32;19.20;;;13.50;;
71648;SDS011;59492;45.638;11.714;2022-12-24T02:17:23;16.00;;;13.50;;
71648;SDS011;59492;45.638;11.714;2022-12-24T02:22:18;17.70;;;13.80;;
71648;SDS011;59492;45.638;11.714;2022-12-24T02:27:50;17.40;;;13.30;;
71648;SDS011;59492;45.638;11.714;2022-12-24T02:30:19;15.30;;;12.20;;
71648;SDS011;59492;45.638;11.714;2022-12-24T02:32:55;17.00;;;12.50;;
71648;SDS011;59492;45.638;11.714;2022-12-24T02:38:27;17.30;;;13.30;;
71648;SDS011;59492;45.638;11.714;2022-12-24T02:41:03;17.20;;;13.10;;
71648;SDS011;59492;45.638;11.714;2022-12-24T02:43:35;14.90;;;13.20;;
71648;SDS011;59492;45.638;11.714;2022-12-24T02:46:35;17.80;;;13.70;;
71648;SDS011;59492;45.638;11.714;2022-12-24T02:48:54;15.80;;;13.20;;
71648;SDS011;59492;45.638;11.714;2022-12-24T02:51:23;18.10;;;14.00;;
71648;SDS011;59492;45.638;11.714;2022-12-24T02:53:49;17.20;;;13.50;;
71648;SDS011;59492;45.638;11.714;2022-12-24T02:56:36;16.30;;;12.80;;
71648;SDS011;59492;45.638;11.714;2022-12-24T02:59:29;15.30;;;12.50;;
71648;SDS011;59492;45.638;11.714;2022-12-24T03:09:37;16.90;;;13.00;;
71648;SDS011;59492;45.638;11.714;2022-12-24T03:12:19;17.80;;;13.40;;
71648;SDS011;59492;45.638;11.714;2022-12-24T03:14:50;17.90;;;13.50;;
71648;SDS011;59492;45.638;11.714;2022-12-24T03:17:17;17.70;;;13.70;;
71648;SDS011;59492;45.638;11.714;2022-12-24T03:19:44;14.50;;;12.50;;
71648;SDS011;59492;45.638;11.714;2022-12-24T03:22:11;15.00;;;12.80;;
71648;SDS011;59492;45.638;11.714;2022-12-24T03:24:37;15.70;;;11.90;;
71648;SDS011;59492;45.638;11.714;2022-12-24T03:27:04;16.20;;;12.60;;
71648;SDS011;59492;45.638;11.714;2022-12-24T03:29:33;15.60;;;13.30;;
71648;SDS011;59492;45.638;11.714;2022-12-24T03:31:59;14.10;;;12.20;;
71648;SDS011;59492;45.638;11.714;2022-12-24T03:34:28;15.00;;;13.10;;
71648;SDS011;59492;45.638;11.714;2022-12-24T03:36:54;16.30;;;13.30;;
71648;SDS011;59492;45.638;11.714;2022-12-24T03:39:21;16.90;;;13.80;;
71648;SDS011;59492;45.638;11.714;2022-12-24T03:41:47;14.00;;;11.90;;
71648;SDS011;59492;45.638;11.714;2022-12-24T03:44:12;14.70;;;12.30;;
71648;SDS011;59492;45.638;11.714;2022-12-24T03:46:38;15.20;;;12.10;;
71648;SDS011;59492;45.638;11.714;2022-12-24T03:49:03;14.60;;;12.00;;
71648;SDS011;59492;45.638;11.714;2022-12-24T03:51:29;16.00;;;12.10;;
71648;SDS011;59492;45.638;11.714;2022-12-24T03:53:55;16.00;;;12.50;;
71648;SDS011;59492;45.638;11.714;2022-12-24T03:56:21;14.90;;;13.20;;
71648;SDS011;59492;45.638;11.714;2022-12-24T03:58:48;14.60;;;13.00;;
71648;SDS011;59492;45.638;11.714;2022-12-24T04:01:14;16.20;;;13.20;;
71648;SDS011;59492;45.638;11.714;2022-12-24T04:03:40;15.30;;;13.00;;
71648;SDS011;59492;45.638;11.714;2022-12-24T04:06:10;14.80;;;12.90;;
71648;SDS011;59492;45.638;11.714;2022-12-24T04:08:38;15.60;;;11.50;;
71648;SDS011;59492;45.638;11.714;2022-12-24T04:11:04;14.50;;;11.60;;
71648;SDS011;59492;45.638;11.714;2022-12-24T04:13:31;15.40;;;12.20;;
71648;SDS011;59492;45.638;11.714;2022-12-24T04:15:57;15.80;;;12.60;;
71648;SDS011;59492;45.638;11.714;2022-12-24T04:18:24;14.50;;;12.70;;
71648;SDS011;59492;45.638;11.714;2022-12-24T04:20:50;17.20;;;13.70;;
71648;SDS011;59492;45.638;11.714;2022-12-24T04:23:16;15.20;;;12.80;;
71648;SDS011;59492;45.638;11.714;2022-12-24T04:25:41;16.20;;;13.10;;
71648;SDS011;59492;45.638;11.714;2022-12-24T04:28:07;14.30;;;12.10;;
71648;SDS011;59492;45.638;11.714;2022-12-24T04:30:32;13.70;;;11.70;;
71648;SDS011;59492;45.638;11.714;2022-12-24T04:32:58;14.00;;;11.90;;
71648;SDS011;59492;45.638;11.714;2022-12-24T04:35:24;15.70;;;12.10;;
71648;SDS011;59492;45.638;11.714;2022-12-24T04:37:49;15.70;;;13.10;;
71648;SDS011;59492;45.638;11.714;2022-12-24T04:40:15;16.40;;;13.00;;
71648;SDS011;59492;45.638;11.714;2022-12-24T04:42:40;14.90;;;12.50;;
71648;SDS011;59492;45.638;11.714;2022-12-24T04:45:06;13.70;;;11.80;;
71648;SDS011;59492;45.638;11.714;2022-12-24T04:47:32;15.60;;;12.90;;
71648;SDS011;59492;45.638;11.714;2022-12-24T04:49:57;14.40;;;12.30;;
71648;SDS011;59492;45.638;11.714;2022-12-24T04:52:25;16.30;;;12.90;;
71648;SDS011;59492;45.638;11.714;2022-12-24T04:54:51;13.70;;;11.90;;
71648;SDS011;59492;45.638;11.714;2022-12-24T04:57:17;13.50;;;11.60;;
71648;SDS011;59492;45.638;11.714;2022-12-24T04:59:43;13.60;;;11.80;;
71648;SDS011;59492;45.638;11.714;2022-12-24T05:02:08;15.30;;;12.10;;
71648;SDS011;59492;45.638;11.714;2022-12-24T05:04:34;15.10;;;12.20;;
71648;SDS011;59492;45.638;11.714;2022-12-24T05:06:59;14.80;;;12.00;;
71648;SDS011;59492;45.638;11.714;2022-12-24T05:09:25;13.30;;;11.70;;
71648;SDS011;59492;45.638;11.714;2022-12-24T05:11:51;15.50;;;12.30;;
71648;SDS011;59492;45.638;11.714;2022-12-24T05:14:16;13.80;;;12.00;;
71648;SDS011;59492;45.638;11.714;2022-12-24T05:16:42;15.40;;;12.40;;
71648;SDS011;59492;45.638;11.714;2022-12-24T05:19:08;15.60;;;11.80;;
71648;SDS011;59492;45.638;11.714;2022-12-24T05:21:33;13.00;;;11.20;;
71648;SDS011;59492;45.638;11.714;2022-12-24T05:23:59;14.80;;;12.10;;
71648;SDS011;59492;45.638;11.714;2022-12-24T05:26:43;14.60;;;11.80;;
71648;SDS011;59492;45.638;11.714;2022-12-24T05:29:13;14.70;;;12.50;;
71648;SDS011;59492;45.638;11.714;2022-12-24T05:31:39;15.30;;;12.20;;
71648;SDS011;59492;45.638;11.714;2022-12-24T05:34:06;14.50;;;12.60;;
71648;SDS011;59492;45.638;11.714;2022-12-24T05:36:32;14.80;;;12.90;;
71648;SDS011;59492;45.638;11.714;2022-12-24T05:38:58;14.30;;;12.30;;
71648;SDS011;59492;45.638;11.714;2022-12-24T05:41:24;12.90;;;11.40;;
71648;SDS011;59492;45.638;11.714;2022-12-24T05:43:50;13.70;;;11.70;;
71648;SDS011;59492;45.638;11.714;2022-12-24T05:46:17;12.90;;;11.30;;
71648;SDS011;59492;45.638;11.714;2022-12-24T05:48:43;12.60;;;11.20;;
71648;SDS011;59492;45.638;11.714;2022-12-24T05:51:10;13.10;;;11.70;;
71648;SDS011;59492;45.638;11.714;2022-12-24T05:53:37;14.50;;;11.60;;
71648;SDS011;59492;45.638;11.714;2022-12-24T05:56:04;14.50;;;11.90;;
71648;SDS011;59492;45.638;11.714;2022-12-24T05:58:35;14.20;;;12.10;;
71648;SDS011;59492;45.638;11.714;2022-12-24T06:01:01;14.00;;;11.50;;
71648;SDS011;59492;45.638;11.714;2022-12-24T06:03:28;14.90;;;11.40;;
71648;SDS011;59492;45.638;11.714;2022-12-24T06:06:02;12.00;;;10.50;;
71648;SDS011;59492;45.638;11.714;2022-12-24T06:08:33;13.90;;;12.10;;
71648;SDS011;59492;45.638;11.714;2022-12-24T06:11:01;13.90;;;12.10;;
71648;SDS011;59492;45.638;11.714;2022-12-24T06:13:28;14.40;;;12.10;;
71648;SDS011;59492;45.638;11.714;2022-12-24T06:15:55;14.60;;;11.90;;
71648;SDS011;59492;45.638;11.714;2022-12-24T06:18:21;13.30;;;11.70;;
71648;SDS011;59492;45.638;11.714;2022-12-24T06:20:51;13.40;;;11.90;;
71648;SDS011;59492;45.638;11.714;2022-12-24T06:23:18;15.00;;;12.00;;
71648;SDS011;59492;45.638;11.714;2022-12-24T06:25:44;12.80;;;11.10;;
71648;SDS011;59492;45.638;11.714;2022-12-24T06:28:10;11.60;;;10.20;;
71648;SDS011;59492;45.638;11.714;2022-12-24T06:30:36;13.30;;;11.70;;
71648;SDS011;59492;45.638;11.714;2022-12-24T06:33:01;14.40;;;11.40;;
71648;SDS011;59492;45.638;11.714;2022-12-24T06:35:27;14.00;;;11.80;;
71648;SDS011;59492;45.638;11.714;2022-12-24T06:37:55;13.60;;;11.60;;
71648;SDS011;59492;45.638;11.714;2022-12-24T06:40:21;13.90;;;11.80;;
71648;SDS011;59492;45.638;11.714;2022-12-24T06:42:47;13.90;;;11.80;;
71648;SDS011;59492;45.638;11.714;2022-12-24T06:45:13;14.00;;;11.80;;
71648;SDS011;59492;45.638;11.714;2022-12-24T06:47:43;12.90;;;10.20;;
71648;SDS011;59492;45.638;11.714;2022-12-24T06:50:09;12.00;;;10.70;;
71648;SDS011;59492;45.638;11.714;2022-12-24T06:52:37;13.20;;;10.70;;
71648;SDS011;59492;45.638;11.714;2022-12-24T06:55:04;13.10;;;11.10;;
71648;SDS011;59492;45.638;11.714;2022-12-24T06:57:32;14.10;;;11.70;;
71648;SDS011;59492;45.638;11.714;2022-12-24T06:59:58;14.20;;;11.20;;
71648;SDS011;59492;45.638;11.714;2022-12-24T07:02:25;15.00;;;12.00;;
71648;SDS011;59492;45.638;11.714;2022-12-24T07:04:50;13.90;;;11.40;;
71648;SDS011;59492;45.638;11.714;2022-12-24T07:07:17;14.60;;;11.40;;
71648;SDS011;59492;45.638;11.714;2022-12-24T07:09:45;15.20;;;12.10;;
71648;SDS011;59492;45.638;11.714;2022-12-24T07:12:12;11.80;;;10.00;;
71648;SDS011;59492;45.638;11.714;2022-12-24T07:14:37;14.80;;;10.90;;
71648;SDS011;59492;45.638;11.714;2022-12-24T07:17:03;14.60;;;10.80;;
71648;SDS011;59492;45.638;11.714;2022-12-24T07:19:30;13.80;;;11.00;;
71648;SDS011;59492;45.638;11.714;2022-12-24T07:21:56;14.40;;;12.50;;
71648;SDS011;59492;45.638;11.714;2022-12-24T07:24:22;14.90;;;11.80;;
71648;SDS011;59492;45.638;11.714;2022-12-24T07:26:48;14.00;;;11.60;;
71648;SDS011;59492;45.638;11.714;2022-12-24T07:29:14;14.00;;;11.20;;
71648;SDS011;59492;45.638;11.714;2022-12-24T07:31:39;12.20;;;10.90;;
71648;SDS011;59492;45.638;11.714;2022-12-24T07:34:05;13.90;;;11.30;;
71648;SDS011;59492;45.638;11.714;2022-12-24T07:36:30;11.60;;;9.60;;
71648;SDS011;59492;45.638;11.714;2022-12-24T07:38:56;12.30;;;10.30;;
71648;SDS011;59492;45.638;11.714;2022-12-24T07:41:21;11.80;;;10.10;;
71648;SDS011;59492;45.638;11.714;2022-12-24T07:43:47;14.80;;;11.40;;
71648;SDS011;59492;45.638;11.714;2022-12-24T07:46:13;14.40;;;10.60;;
71648;SDS011;59492;45.638;11.714;2022-12-24T07:48:38;15.90;;;10.70;;
71648;SDS011;59492;45.638;11.714;2022-12-24T07:51:04;15.10;;;10.90;;
71648;SDS011;59492;45.638;11.714;2022-12-24T07:53:30;12.70;;;10.90;;
71648;SDS011;59492;45.638;11.714;2022-12-24T07:55:56;13.60;;;10.50;;
71648;SDS011;59492;45.638;11.714;2022-12-24T07:58:22;12.20;;;9.90;;
71648;SDS011;59492;45.638;11.714;2022-12-24T08:00:59;12.80;;;9.80;;
71648;SDS011;59492;45.638;11.714;2022-12-24T08:03:25;14.40;;;10.30;;
71648;SDS011;59492;45.638;11.714;2022-12-24T08:05:51;14.30;;;10.40;;
71648;SDS011;59492;45.638;11.714;2022-12-24T08:08:17;14.20;;;11.00;;
71648;SDS011;59492;45.638;11.714;2022-12-24T08:10:43;12.00;;;10.30;;
71648;SDS011;59492;45.638;11.714;2022-12-24T08:13:10;19.30;;;11.20;;
71648;SDS011;59492;45.638;11.714;2022-12-24T08:15:36;13.30;;;10.90;;
71648;SDS011;59492;45.638;11.714;2022-12-24T08:18:01;13.70;;;10.60;;
71648;SDS011;59492;45.638;11.714;2022-12-24T08:20:27;11.50;;;9.00;;
71648;SDS011;59492;45.638;11.714;2022-12-24T08:22:53;14.60;;;9.70;;
71648;SDS011;59492;45.638;11.714;2022-12-24T08:25:18;12.20;;;10.30;;
71648;SDS011;59492;45.638;11.714;2022-12-24T08:27:44;14.20;;;11.10;;
71648;SDS011;59492;45.638;11.714;2022-12-24T08:30:11;12.70;;;10.10;;
71648;SDS011;59492;45.638;11.714;2022-12-24T08:32:37;12.60;;;10.40;;
71648;SDS011;59492;45.638;11.714;2022-12-24T08:35:03;14.10;;;10.40;;
71648;SDS011;59492;45.638;11.714;2022-12-24T08:37:29;15.70;;;10.30;;
71648;SDS011;59492;45.638;11.714;2022-12-24T08:39:54;18.40;;;10.60;;
71648;SDS011;59492;45.638;11.714;2022-12-24T08:42:20;13.20;;;10.10;;
71648;SDS011;59492;45.638;11.714;2022-12-24T08:44:45;16.60;;;10.30;;
71648;SDS011;59492;45.638;11.714;2022-12-24T08:47:11;18.00;;;10.80;;
71648;SDS011;59492;45.638;11.714;2022-12-24T08:49:37;14.00;;;10.30;;
71648;SDS011;59492;45.638;11.714;2022-12-24T08:52:04;15.00;;;10.90;;
71648;SDS011;59492;45.638;11.714;2022-12-24T08:54:30;13.70;;;10.50;;
71648;SDS011;59492;45.638;11.714;2022-12-24T08:56:56;17.50;;;10.50;;
71648;SDS011;59492;45.638;11.714;2022-12-24T08:59:21;14.80;;;11.30;;
71648;SDS011;59492;45.638;11.714;2022-12-24T09:01:47;16.40;;;11.20;;
71648;SDS011;59492;45.638;11.714;2022-12-24T09:04:12;12.90;;;10.60;;
71648;SDS011;59492;45.638;11.714;2022-12-24T09:06:38;13.50;;;10.90;;
71648;SDS011;59492;45.638;11.714;2022-12-24T09:09:05;15.60;;;10.20;;
71648;SDS011;59492;45.638;11.714;2022-12-24T09:11:32;14.10;;;10.10;;
71648;SDS011;59492;45.638;11.714;2022-12-24T09:13:58;12.70;;;10.10;;
71648;SDS011;59492;45.638;11.714;2022-12-24T09:16:24;12.80;;;10.20;;
71648;SDS011;59492;45.638;11.714;2022-12-24T09:18:50;14.00;;;10.40;;
71648;SDS011;59492;45.638;11.714;2022-12-24T09:21:16;14.00;;;10.20;;
71648;SDS011;59492;45.638;11.714;2022-12-24T09:23:43;15.50;;;10.60;;
71648;SDS011;59492;45.638;11.714;2022-12-24T09:26:14;15.80;;;10.50;;
71648;SDS011;59492;45.638;11.714;2022-12-24T09:28:47;13.50;;;10.00;;
71648;SDS011;59492;45.638;11.714;2022-12-24T09:31:14;13.80;;;10.60;;
71648;SDS011;59492;45.638;11.714;2022-12-24T09:33:40;12.20;;;9.40;;
71648;SDS011;59492;45.638;11.714;2022-12-24T09:36:07;10.60;;;8.90;;
71648;SDS011;59492;45.638;11.714;2022-12-24T09:38:33;13.90;;;9.80;;
71648;SDS011;59492;45.638;11.714;2022-12-24T09:41:00;11.30;;;9.40;;
71648;SDS011;59492;45.638;11.714;2022-12-24T09:43:35;12.60;;;10.20;;
71648;SDS011;59492;45.638;11.714;2022-12-24T09:49:05;11.50;;;9.30;;
71648;SDS011;59492;45.638;11.714;2022-12-24T09:51:36;9.90;;;8.80;;
71648;SDS011;59492;45.638;11.714;2022-12-24T09:54:09;12.70;;;9.60;;
71648;SDS011;59492;45.638;11.714;2022-12-24T09:56:45;10.80;;;8.50;;
71648;SDS011;59492;45.638;11.714;2022-12-24T09:59:13;10.90;;;8.70;;
71648;SDS011;59492;45.638;11.714;2022-12-24T10:01:41;11.20;;;8.30;;
71648;SDS011;59492;45.638;11.714;2022-12-24T10:04:15;12.20;;;9.30;;
71648;SDS011;59492;45.638;11.714;2022-12-24T10:09:33;11.60;;;9.50;;
71648;SDS011;59492;45.638;11.714;2022-12-24T10:17:44;13.00;;;9.50;;
71648;SDS011;59492;45.638;11.714;2022-12-24T10:22:59;13.00;;;8.70;;
71648;SDS011;59492;45.638;11.714;2022-12-24T10:25:48;10.80;;;8.70;;
71648;SDS011;59492;45.638;11.714;2022-12-24T10:28:20;10.30;;;8.20;;
71648;SDS011;59492;45.638;11.714;2022-12-24T10:30:49;13.10;;;9.30;;
71648;SDS011;59492;45.638;11.714;2022-12-24T10:33:29;11.50;;;9.20;;
71648;SDS011;59492;45.638;11.714;2022-12-24T10:36:07;13.60;;;9.00;;
71648;SDS011;59492;45.638;11.714;2022-12-24T10:38:40;10.20;;;8.90;;
71648;SDS011;59492;45.638;11.714;2022-12-24T10:41:06;10.70;;;9.50;;
71648;SDS011;59492;45.638;11.714;2022-12-24T10:43:32;10.70;;;9.40;;
71648;SDS011;59492;45.638;11.714;2022-12-24T10:46:02;11.20;;;9.60;;
71648;SDS011;59492;45.638;11.714;2022-12-24T10:48:32;11.20;;;8.90;;
71648;SDS011;59492;45.638;11.714;2022-12-24T10:51:12;11.60;;;8.60;;
71648;SDS011;59492;45.638;11.714;2022-12-24T10:53:54;12.90;;;9.20;;
71648;SDS011;59492;45.638;11.714;2022-12-24T10:56:24;10.50;;;9.20;;
71648;SDS011;59492;45.638;11.714;2022-12-24T10:58:53;10.60;;;9.10;;
71648;SDS011;59492;45.638;11.714;2022-12-24T11:01:20;13.80;;;9.80;;
71648;SDS011;59492;45.638;11.714;2022-12-24T11:04:16;15.60;;;9.50;;
71648;SDS011;59492;45.638;11.714;2022-12-24T11:06:53;11.50;;;9.50;;
71648;SDS011;59492;45.638;11.714;2022-12-24T11:09:29;12.40;;;9.00;;
71648;SDS011;59492;45.638;11.714;2022-12-24T11:11:58;12.50;;;9.70;;
71648;SDS011;59492;45.638;11.714;2022-12-24T11:14:25;16.40;;;9.10;;
71648;SDS011;59492;45.638;11.714;2022-12-24T11:16:58;17.30;;;9.10;;
71648;SDS011;59492;45.638;11.714;2022-12-24T11:19:37;13.30;;;9.50;;
71648;SDS011;59492;45.638;11.714;2022-12-24T11:22:16;12.50;;;10.20;;
71648;SDS011;59492;45.638;11.714;2022-12-24T11:24:45;14.80;;;11.20;;
71648;SDS011;59492;45.638;11.714;2022-12-24T11:27:31;13.70;;;10.80;;
71648;SDS011;59492;45.638;11.714;2022-12-24T11:30:37;14.30;;;10.60;;
71648;SDS011;59492;45.638;11.714;2022-12-24T11:35:24;17.40;;;11.20;;
71648;SDS011;59492;45.638;11.714;2022-12-24T11:40:38;12.70;;;9.90;;
71648;SDS011;59492;45.638;11.714;2022-12-24T11:43:10;17.00;;;10.40;;
71648;SDS011;59492;45.638;11.714;2022-12-24T11:45:44;14.90;;;10.40;;
71648;SDS011;59492;45.638;11.714;2022-12-24T11:48:28;14.70;;;11.40;;
71648;SDS011;59492;45.638;11.714;2022-12-24T11:50:58;15.40;;;11.80;;
71648;SDS011;59492;45.638;11.714;2022-12-24T11:53:49;14.00;;;11.00;;
71648;SDS011;59492;45.638;11.714;2022-12-24T11:59:21;15.90;;;11.20;;
71648;SDS011;59492;45.638;11.714;2022-12-24T12:04:42;14.40;;;10.50;;
71648;SDS011;59492;45.638;11.714;2022-12-24T12:12:42;14.50;;;10.80;;
71648;SDS011;59492;45.638;11.714;2022-12-24T12:15:17;14.90;;;11.30;;
71648;SDS011;59492;45.638;11.714;2022-12-24T12:26:18;16.50;;;10.80;;
71648;SDS011;59492;45.638;11.714;2022-12-24T12:28:50;19.00;;;11.60;;
71648;SDS011;59492;45.638;11.714;2022-12-24T12:31:25;15.60;;;11.50;;
71648;SDS011;59492;45.638;11.714;2022-12-24T12:36:53;14.20;;;11.10;;
71648;SDS011;59492;45.638;11.714;2022-12-24T12:39:24;14.40;;;11.50;;
71648;SDS011;59492;45.638;11.714;2022-12-24T12:42:02;15.20;;;11.80;;
71648;SDS011;59492;45.638;11.714;2022-12-24T12:50:39;14.00;;;11.20;;
71648;SDS011;59492;45.638;11.714;2022-12-24T12:56:34;14.10;;;10.90;;
71648;SDS011;59492;45.638;11.714;2022-12-24T13:07:54;14.60;;;10.50;;
71648;SDS011;59492;45.638;11.714;2022-12-24T13:21:04;19.10;;;10.40;;
71648;SDS011;59492;45.638;11.714;2022-12-24T13:23:42;13.90;;;10.90;;
71648;SDS011;59492;45.638;11.714;2022-12-24T13:26:12;15.00;;;11.40;;
71648;SDS011;59492;45.638;11.714;2022-12-24T13:28:38;16.80;;;12.00;;
71648;SDS011;59492;45.638;11.714;2022-12-24T13:33:52;14.50;;;11.60;;
71648;SDS011;59492;45.638;11.714;2022-12-24T13:36:22;20.40;;;12.70;;
71648;SDS011;59492;45.638;11.714;2022-12-24T13:49:32;18.40;;;12.40;;
71648;SDS011;59492;45.638;11.714;2022-12-24T13:57:30;21.00;;;13.90;;
71648;SDS011;59492;45.638;11.714;2022-12-24T14:00:06;20.90;;;14.80;;
71648;SDS011;59492;45.638;11.714;2022-12-24T14:03:20;21.70;;;14.30;;
71648;SDS011;59492;45.638;11.714;2022-12-24T14:05:37;24.60;;;14.20;;
71648;SDS011;59492;45.638;11.714;2022-12-24T14:08:11;21.30;;;14.40;;
71648;SDS011;59492;45.638;11.714;2022-12-24T14:10:41;21.20;;;12.90;;
71648;SDS011;59492;45.638;11.714;2022-12-24T14:21:43;23.00;;;15.60;;
71648;SDS011;59492;45.638;11.714;2022-12-24T14:24:26;24.30;;;15.90;;
71648;SDS011;59492;45.638;11.714;2022-12-24T14:26:58;22.60;;;15.30;;
71648;SDS011;59492;45.638;11.714;2022-12-24T14:29:58;26.70;;;16.40;;
71648;SDS011;59492;45.638;11.714;2022-12-24T14:32:32;29.90;;;17.10;;
71648;SDS011;59492;45.638;11.714;2022-12-24T14:35:05;26.90;;;17.90;;
71648;SDS011;59492;45.638;11.714;2022-12-24T14:37:33;36.30;;;20.90;;
71648;SDS011;59492;45.638;11.714;2022-12-24T14:40:00;28.60;;;21.20;;
71648;SDS011;59492;45.638;11.714;2022-12-24T14:45:18;27.90;;;20.90;;
71648;SDS011;59492;45.638;11.714;2022-12-24T14:48:04;32.30;;;21.40;;
71648;SDS011;59492;45.638;11.714;2022-12-24T14:56:17;28.70;;;19.80;;
71648;SDS011;59492;45.638;11.714;2022-12-24T14:58:44;27.20;;;19.50;;
71648;SDS011;59492;45.638;11.714;2022-12-24T15:06:30;31.10;;;19.70;;
71648;SDS011;59492;45.638;11.714;2022-12-24T15:08:58;25.80;;;19.30;;
71648;SDS011;59492;45.638;11.714;2022-12-24T15:11:24;27.10;;;20.20;;
71648;SDS011;59492;45.638;11.714;2022-12-24T15:13:51;27.20;;;20.20;;
71648;SDS011;59492;45.638;11.714;2022-12-24T15:16:34;32.80;;;18.00;;
71648;SDS011;59492;45.638;11.714;2022-12-24T15:19:37;24.60;;;16.90;;
71648;SDS011;59492;45.638;11.714;2022-12-24T15:22:22;24.00;;;17.80;;
71648;SDS011;59492;45.638;11.714;2022-12-24T15:25:41;23.90;;;17.90;;
71648;SDS011;59492;45.638;11.714;2022-12-24T15:28:18;22.10;;;16.80;;
71648;SDS011;59492;45.638;11.714;2022-12-24T15:30:45;25.60;;;17.60;;
71648;SDS011;59492;45.638;11.714;2022-12-24T15:33:11;27.70;;;17.90;;
71648;SDS011;59492;45.638;11.714;2022-12-24T15:35:46;21.60;;;16.40;;
71648;SDS011;59492;45.638;11.714;2022-12-24T15:38:21;23.50;;;17.20;;
71648;SDS011;59492;45.638;11.714;2022-12-24T15:40:49;23.80;;;16.90;;
71648;SDS011;59492;45.638;11.714;2022-12-24T15:43:15;24.00;;;18.00;;
71648;SDS011;59492;45.638;11.714;2022-12-24T15:45:42;26.30;;;17.30;;
71648;SDS011;59492;45.638;11.714;2022-12-24T15:48:33;26.00;;;18.00;;
71648;SDS011;59492;45.638;11.714;2022-12-24T15:51:02;24.00;;;17.00;;
71648;SDS011;59492;45.638;11.714;2022-12-24T15:53:30;21.70;;;14.80;;
71648;SDS011;59492;45.638;11.714;2022-12-24T15:58:30;24.30;;;16.30;;
71648;SDS011;59492;45.638;11.714;2022-12-24T16:01:05;23.60;;;16.80;;
71648;SDS011;59492;45.638;11.714;2022-12-24T16:06:14;26.20;;;16.90;;
71648;SDS011;59492;45.638;11.714;2022-12-24T16:08:41;23.00;;;17.10;;
71648;SDS011;59492;45.638;11.714;2022-12-24T16:16:32;21.00;;;15.20;;
71648;SDS011;59492;45.638;11.714;2022-12-24T16:19:04;21.60;;;15.60;;
71648;SDS011;59492;45.638;11.714;2022-12-24T16:21:41;19.80;;;14.20;;
71648;SDS011;59492;45.638;11.714;2022-12-24T16:24:20;30.40;;;17.70;;
71648;SDS011;59492;45.638;11.714;2022-12-24T16:26:49;25.10;;;16.20;;
71648;SDS011;59492;45.638;11.714;2022-12-24T16:29:15;27.50;;;15.70;;
71648;SDS011;59492;45.638;11.714;2022-12-24T16:31:52;25.80;;;14.80;;
71648;SDS011;59492;45.638;11.714;2022-12-24T16:34:22;22.50;;;16.30;;
71648;SDS011;59492;45.638;11.714;2022-12-24T16:36:50;26.30;;;16.00;;
71648;SDS011;59492;45.638;11.714;2022-12-24T16:39:20;25.40;;;15.70;;
71648;SDS011;59492;45.638;11.714;2022-12-24T16:41:47;23.70;;;15.60;;
71648;SDS011;59492;45.638;11.714;2022-12-24T16:44:31;24.10;;;15.00;;